sensor_id;sensor_type;location;lat;lon;timestamp;P1;durP1;ratioP1;P2;durP2;ratioP2
72437;SDS011;60444;43.534;-5.674;2023-02-14T00:01:42;20.73;;;9.00;;
72437;SDS011;60444;43.534;-5.674;2023-02-14T00:04:08;18.90;;;8.38;;
72437;SDS011;60444;43.534;-5.674;2023-02-14T00:06:34;17.40;;;8.33;;
72437;SDS011;60444;43.534;-5.674;2023-02-14T00:09:03;15.68;;;7.75;;
72437;SDS011;60444;43.534;-5.674;2023-02-14T00:11:34;17.50;;;7.90;;
72437;SDS011;60444;43.534;-5.674;2023-02-14T00:14:00;15.03;;;6.90;;
72437;SDS011;60444;43.534;-5.674;2023-02-14T00:16:43;16.02;;;6.72;;
72437;SDS011;60444;43.534;-5.674;2023-02-14T00:19:10;19.93;;;9.63;;
72437;SDS011;60444;43.534;-5.674;2023-02-14T00:21:37;18.60;;;8.63;;
72437;SDS011;60444;43.534;-5.674;2023-02-14T00:24:03;15.82;;;7.97;;
72437;SDS011;60444;43.534;-5.674;2023-02-14T00:26:31;17.27;;;8.23;;
72437;SDS011;60444;43.534;-5.674;2023-02-14T00:28:57;20.30;;;7.68;;
72437;SDS011;60444;43.534;-5.674;2023-02-14T00:31:22;19.23;;;7.73;;
72437;SDS011;60444;43.534;-5.674;2023-02-14T00:33:48;15.90;;;6.60;;
72437;SDS011;60444;43.534;-5.674;2023-02-14T00:36:13;17.77;;;8.13;;
72437;SDS011;60444;43.534;-5.674;2023-02-14T00:38:41;15.25;;;8.10;;
72437;SDS011;60444;43.534;-5.674;2023-02-14T00:41:07;16.30;;;7.30;;
72437;SDS011;60444;43.534;-5.674;2023-02-14T00:43:32;18.53;;;8.60;;
72437;SDS011;60444;43.534;-5.674;2023-02-14T00:45:58;18.55;;;8.32;;
72437;SDS011;60444;43.534;-5.674;2023-02-14T00:48:23;23.03;;;8.40;;
72437;SDS011;60444;43.534;-5.674;2023-02-14T00:50:49;18.57;;;8.17;;
72437;SDS011;60444;43.534;-5.674;2023-02-14T00:53:15;20.67;;;9.20;;
72437;SDS011;60444;43.534;-5.674;2023-02-14T00:55:40;18.40;;;9.03;;
72437;SDS011;60444;43.534;-5.674;2023-02-14T00:58:11;15.85;;;8.20;;
72437;SDS011;60444;43.534;-5.674;2023-02-14T01:00:37;20.23;;;9.33;;
72437;SDS011;60444;43.534;-5.674;2023-02-14T01:03:02;21.07;;;8.10;;
72437;SDS011;60444;43.534;-5.674;2023-02-14T01:05:28;18.98;;;8.95;;
72437;SDS011;60444;43.534;-5.674;2023-02-14T01:07:53;17.77;;;8.80;;
72437;SDS011;60444;43.534;-5.674;2023-02-14T01:10:19;14.90;;;8.20;;
72437;SDS011;60444;43.534;-5.674;2023-02-14T01:12:44;18.55;;;9.27;;
72437;SDS011;60444;43.534;-5.674;2023-02-14T01:15:10;17.80;;;8.60;;
72437;SDS011;60444;43.534;-5.674;2023-02-14T01:17:35;16.20;;;8.37;;
72437;SDS011;60444;43.534;-5.674;2023-02-14T01:20:01;14.77;;;6.00;;
72437;SDS011;60444;43.534;-5.674;2023-02-14T01:22:26;12.23;;;5.55;;
72437;SDS011;60444;43.534;-5.674;2023-02-14T01:24:52;14.60;;;6.17;;
72437;SDS011;60444;43.534;-5.674;2023-02-14T01:27:17;13.87;;;5.87;;
72437;SDS011;60444;43.534;-5.674;2023-02-14T01:29:43;14.65;;;7.32;;
72437;SDS011;60444;43.534;-5.674;2023-02-14T01:32:08;17.87;;;6.77;;
72437;SDS011;60444;43.534;-5.674;2023-02-14T01:34:34;18.17;;;6.57;;
72437;SDS011;60444;43.534;-5.674;2023-02-14T01:36:59;16.67;;;7.65;;
72437;SDS011;60444;43.534;-5.674;2023-02-14T01:39:24;20.93;;;8.23;;
72437;SDS011;60444;43.534;-5.674;2023-02-14T01:41:50;17.05;;;7.63;;
72437;SDS011;60444;43.534;-5.674;2023-02-14T01:46:43;40.13;;;12.40;;
72437;SDS011;60444;43.534;-5.674;2023-02-14T01:49:11;21.60;;;8.33;;
72437;SDS011;60444;43.534;-5.674;2023-02-14T01:51:43;27.63;;;10.88;;
72437;SDS011;60444;43.534;-5.674;2023-02-14T01:54:14;29.50;;;12.02;;
72437;SDS011;60444;43.534;-5.674;2023-02-14T01:56:46;32.70;;;12.85;;
72437;SDS011;60444;43.534;-5.674;2023-02-14T01:59:16;26.35;;;9.40;;
72437;SDS011;60444;43.534;-5.674;2023-02-14T02:01:44;21.37;;;8.73;;
72437;SDS011;60444;43.534;-5.674;2023-02-14T02:04:14;29.08;;;9.57;;
72437;SDS011;60444;43.534;-5.674;2023-02-14T02:06:44;34.50;;;11.93;;
72437;SDS011;60444;43.534;-5.674;2023-02-14T02:09:30;27.35;;;10.75;;
72437;SDS011;60444;43.534;-5.674;2023-02-14T02:12:00;25.35;;;9.45;;
72437;SDS011;60444;43.534;-5.674;2023-02-14T02:14:25;23.17;;;9.50;;
72437;SDS011;60444;43.534;-5.674;2023-02-14T02:21:52;22.02;;;8.02;;
72437;SDS011;60444;43.534;-5.674;2023-02-14T02:47:30;21.40;;;7.63;;
72437;SDS011;60444;43.534;-5.674;2023-02-14T02:52:47;19.47;;;6.47;;
72437;SDS011;60444;43.534;-5.674;2023-02-14T03:01:16;13.75;;;5.90;;
72437;SDS011;60444;43.534;-5.674;2023-02-14T03:03:47;20.55;;;8.18;;
72437;SDS011;60444;43.534;-5.674;2023-02-14T03:06:35;22.70;;;8.40;;
72437;SDS011;60444;43.534;-5.674;2023-02-14T03:14:39;22.50;;;8.50;;
72437;SDS011;60444;43.534;-5.674;2023-02-14T03:17:15;21.75;;;7.88;;
72437;SDS011;60444;43.534;-5.674;2023-02-14T03:19:51;17.45;;;7.78;;
72437;SDS011;60444;43.534;-5.674;2023-02-14T03:22:47;21.33;;;8.23;;
72437;SDS011;60444;43.534;-5.674;2023-02-14T03:27:47;22.73;;;8.33;;
72437;SDS011;60444;43.534;-5.674;2023-02-14T03:36:08;18.88;;;6.15;;
72437;SDS011;60444;43.534;-5.674;2023-02-14T03:38:50;14.35;;;6.85;;
72437;SDS011;60444;43.534;-5.674;2023-02-14T03:41:20;20.17;;;7.10;;
72437;SDS011;60444;43.534;-5.674;2023-02-14T03:43:51;13.23;;;6.47;;
72437;SDS011;60444;43.534;-5.674;2023-02-14T03:46:25;17.17;;;5.68;;
72437;SDS011;60444;43.534;-5.674;2023-02-14T03:48:56;14.45;;;5.95;;
72437;SDS011;60444;43.534;-5.674;2023-02-14T03:51:24;16.70;;;6.72;;
72437;SDS011;60444;43.534;-5.674;2023-02-14T03:53:53;12.37;;;5.17;;
72437;SDS011;60444;43.534;-5.674;2023-02-14T03:59:25;13.32;;;6.20;;
72437;SDS011;60444;43.534;-5.674;2023-02-14T04:01:58;14.90;;;5.88;;
72437;SDS011;60444;43.534;-5.674;2023-02-14T04:04:40;11.93;;;5.43;;
72437;SDS011;60444;43.534;-5.674;2023-02-14T04:07:13;15.77;;;5.93;;
72437;SDS011;60444;43.534;-5.674;2023-02-14T04:09:41;12.45;;;5.13;;
72437;SDS011;60444;43.534;-5.674;2023-02-14T04:12:07;15.43;;;5.72;;
72437;SDS011;60444;43.534;-5.674;2023-02-14T04:14:33;13.43;;;5.00;;
72437;SDS011;60444;43.534;-5.674;2023-02-14T04:16:59;12.68;;;4.82;;
72437;SDS011;60444;43.534;-5.674;2023-02-14T04:19:43;19.27;;;5.53;;
72437;SDS011;60444;43.534;-5.674;2023-02-14T04:22:08;19.07;;;5.00;;
72437;SDS011;60444;43.534;-5.674;2023-02-14T04:24:34;12.65;;;4.43;;
72437;SDS011;60444;43.534;-5.674;2023-02-14T04:26:59;13.83;;;4.90;;
72437;SDS011;60444;43.534;-5.674;2023-02-14T04:29:38;12.38;;;5.20;;
72437;SDS011;60444;43.534;-5.674;2023-02-14T04:32:06;11.88;;;4.47;;
72437;SDS011;60444;43.534;-5.674;2023-02-14T04:34:33;11.57;;;4.20;;
72437;SDS011;60444;43.534;-5.674;2023-02-14T04:36:58;12.23;;;4.35;;
72437;SDS011;60444;43.534;-5.674;2023-02-14T04:39:24;14.40;;;5.03;;
72437;SDS011;60444;43.534;-5.674;2023-02-14T04:41:49;12.48;;;5.03;;
72437;SDS011;60444;43.534;-5.674;2023-02-14T04:44:15;13.77;;;4.77;;
72437;SDS011;60444;43.534;-5.674;2023-02-14T04:46:40;12.90;;;5.20;;
72437;SDS011;60444;43.534;-5.674;2023-02-14T04:49:06;13.57;;;5.00;;
72437;SDS011;60444;43.534;-5.674;2023-02-14T04:51:31;13.20;;;4.85;;
72437;SDS011;60444;43.534;-5.674;2023-02-14T04:53:57;13.03;;;4.73;;
72437;SDS011;60444;43.534;-5.674;2023-02-14T04:56:22;11.60;;;4.80;;
72437;SDS011;60444;43.534;-5.674;2023-02-14T04:58:50;9.95;;;4.35;;
72437;SDS011;60444;43.534;-5.674;2023-02-14T05:01:15;17.00;;;5.10;;
72437;SDS011;60444;43.534;-5.674;2023-02-14T05:03:41;10.43;;;3.88;;
72437;SDS011;60444;43.534;-5.674;2023-02-14T05:06:06;14.00;;;4.43;;
72437;SDS011;60444;43.534;-5.674;2023-02-14T05:08:32;12.10;;;4.43;;
72437;SDS011;60444;43.534;-5.674;2023-02-14T05:10:57;12.43;;;5.23;;
72437;SDS011;60444;43.534;-5.674;2023-02-14T05:13:23;10.02;;;3.97;;
72437;SDS011;60444;43.534;-5.674;2023-02-14T05:15:48;9.93;;;3.97;;
72437;SDS011;60444;43.534;-5.674;2023-02-14T05:18:14;12.07;;;3.90;;
72437;SDS011;60444;43.534;-5.674;2023-02-14T05:20:39;10.65;;;3.88;;
72437;SDS011;60444;43.534;-5.674;2023-02-14T05:23:05;10.30;;;4.27;;
72437;SDS011;60444;43.534;-5.674;2023-02-14T05:25:37;10.02;;;3.80;;
72437;SDS011;60444;43.534;-5.674;2023-02-14T05:28:06;12.57;;;4.97;;
72437;SDS011;60444;43.534;-5.674;2023-02-14T05:30:31;9.53;;;3.80;;
72437;SDS011;60444;43.534;-5.674;2023-02-14T05:32:57;12.83;;;4.50;;
72437;SDS011;60444;43.534;-5.674;2023-02-14T05:35:23;9.88;;;3.92;;
72437;SDS011;60444;43.534;-5.674;2023-02-14T05:37:48;14.07;;;4.47;;
72437;SDS011;60444;43.534;-5.674;2023-02-14T05:40:14;12.50;;;4.68;;
72437;SDS011;60444;43.534;-5.674;2023-02-14T05:42:40;13.60;;;3.77;;
72437;SDS011;60444;43.534;-5.674;2023-02-14T05:45:07;10.47;;;3.37;;
72437;SDS011;60444;43.534;-5.674;2023-02-14T05:47:33;11.73;;;4.25;;
72437;SDS011;60444;43.534;-5.674;2023-02-14T05:49:58;13.63;;;3.80;;
72437;SDS011;60444;43.534;-5.674;2023-02-14T05:52:24;9.80;;;3.55;;
72437;SDS011;60444;43.534;-5.674;2023-02-14T05:54:49;14.50;;;3.70;;
72437;SDS011;60444;43.534;-5.674;2023-02-14T05:57:15;11.93;;;4.22;;
72437;SDS011;60444;43.534;-5.674;2023-02-14T05:59:41;15.20;;;4.77;;
72437;SDS011;60444;43.534;-5.674;2023-02-14T06:02:07;9.25;;;4.13;;
72437;SDS011;60444;43.534;-5.674;2023-02-14T06:04:32;18.13;;;4.87;;
72437;SDS011;60444;43.534;-5.674;2023-02-14T06:06:58;14.50;;;4.40;;
72437;SDS011;60444;43.534;-5.674;2023-02-14T06:09:23;15.75;;;5.57;;
72437;SDS011;60444;43.534;-5.674;2023-02-14T06:11:49;12.83;;;4.20;;
72437;SDS011;60444;43.534;-5.674;2023-02-14T06:14:14;12.20;;;3.97;;
72437;SDS011;60444;43.534;-5.674;2023-02-14T06:16:40;16.17;;;3.90;;
72437;SDS011;60444;43.534;-5.674;2023-02-14T06:19:05;12.30;;;4.20;;
72437;SDS011;60444;43.534;-5.674;2023-02-14T06:21:31;9.60;;;3.92;;
72437;SDS011;60444;43.534;-5.674;2023-02-14T06:23:57;10.87;;;4.20;;
72437;SDS011;60444;43.534;-5.674;2023-02-14T06:26:22;15.20;;;4.77;;
72437;SDS011;60444;43.534;-5.674;2023-02-14T06:28:54;12.05;;;4.95;;
72437;SDS011;60444;43.534;-5.674;2023-02-14T06:31:21;13.38;;;4.35;;
72437;SDS011;60444;43.534;-5.674;2023-02-14T06:33:47;11.00;;;3.40;;
72437;SDS011;60444;43.534;-5.674;2023-02-14T06:36:12;11.00;;;3.63;;
72437;SDS011;60444;43.534;-5.674;2023-02-14T06:38:40;12.17;;;3.63;;
72437;SDS011;60444;43.534;-5.674;2023-02-14T06:41:07;9.85;;;3.17;;
72437;SDS011;60444;43.534;-5.674;2023-02-14T06:43:33;11.05;;;3.60;;
72437;SDS011;60444;43.534;-5.674;2023-02-14T06:46:00;13.23;;;2.93;;
72437;SDS011;60444;43.534;-5.674;2023-02-14T06:48:25;11.27;;;3.85;;
72437;SDS011;60444;43.534;-5.674;2023-02-14T06:50:51;13.32;;;3.88;;
72437;SDS011;60444;43.534;-5.674;2023-02-14T06:53:17;9.13;;;2.93;;
72437;SDS011;60444;43.534;-5.674;2023-02-14T06:55:43;10.27;;;4.38;;
72437;SDS011;60444;43.534;-5.674;2023-02-14T06:58:09;12.17;;;3.60;;
72437;SDS011;60444;43.534;-5.674;2023-02-14T07:00:34;10.23;;;3.37;;
72437;SDS011;60444;43.534;-5.674;2023-02-14T07:03:00;8.95;;;3.28;;
72437;SDS011;60444;43.534;-5.674;2023-02-14T07:05:26;11.80;;;3.20;;
72437;SDS011;60444;43.534;-5.674;2023-02-14T07:07:51;9.83;;;2.80;;
72437;SDS011;60444;43.534;-5.674;2023-02-14T07:10:17;9.05;;;3.00;;
72437;SDS011;60444;43.534;-5.674;2023-02-14T07:12:42;9.33;;;3.03;;
72437;SDS011;60444;43.534;-5.674;2023-02-14T07:15:09;8.70;;;3.58;;
72437;SDS011;60444;43.534;-5.674;2023-02-14T07:17:36;9.55;;;3.35;;
72437;SDS011;60444;43.534;-5.674;2023-02-14T07:20:05;10.27;;;3.40;;
72437;SDS011;60444;43.534;-5.674;2023-02-14T07:22:32;8.15;;;2.45;;
72437;SDS011;60444;43.534;-5.674;2023-02-14T07:24:58;9.55;;;2.72;;
72437;SDS011;60444;43.534;-5.674;2023-02-14T07:27:23;7.63;;;2.70;;
72437;SDS011;60444;43.534;-5.674;2023-02-14T07:29:49;7.03;;;2.60;;
72437;SDS011;60444;43.534;-5.674;2023-02-14T07:32:14;7.87;;;2.70;;
72437;SDS011;60444;43.534;-5.674;2023-02-14T07:34:40;9.87;;;2.97;;
72437;SDS011;60444;43.534;-5.674;2023-02-14T07:37:05;9.50;;;2.95;;
72437;SDS011;60444;43.534;-5.674;2023-02-14T07:39:31;12.17;;;3.67;;
72437;SDS011;60444;43.534;-5.674;2023-02-14T07:41:57;10.52;;;2.90;;
72437;SDS011;60444;43.534;-5.674;2023-02-14T07:44:22;10.63;;;3.63;;
72437;SDS011;60444;43.534;-5.674;2023-02-14T07:46:48;14.97;;;4.00;;
72437;SDS011;60444;43.534;-5.674;2023-02-14T07:49:13;8.60;;;2.50;;
72437;SDS011;60444;43.534;-5.674;2023-02-14T07:51:39;11.00;;;3.57;;
72437;SDS011;60444;43.534;-5.674;2023-02-14T07:54:04;10.07;;;2.83;;
72437;SDS011;60444;43.534;-5.674;2023-02-14T07:56:30;9.57;;;2.80;;
72437;SDS011;60444;43.534;-5.674;2023-02-14T07:58:56;11.17;;;3.60;;
72437;SDS011;60444;43.534;-5.674;2023-02-14T08:01:21;10.10;;;3.03;;
72437;SDS011;60444;43.534;-5.674;2023-02-14T08:03:47;7.17;;;2.80;;
72437;SDS011;60444;43.534;-5.674;2023-02-14T08:06:16;10.52;;;2.60;;
72437;SDS011;60444;43.534;-5.674;2023-02-14T08:08:43;8.67;;;2.20;;
72437;SDS011;60444;43.534;-5.674;2023-02-14T08:11:09;8.88;;;3.53;;
72437;SDS011;60444;43.534;-5.674;2023-02-14T08:13:35;12.50;;;3.40;;
72437;SDS011;60444;43.534;-5.674;2023-02-14T08:16:04;9.75;;;3.63;;
72437;SDS011;60444;43.534;-5.674;2023-02-14T08:18:39;8.90;;;3.47;;
72437;SDS011;60444;43.534;-5.674;2023-02-14T08:21:07;10.43;;;3.20;;
72437;SDS011;60444;43.534;-5.674;2023-02-14T08:23:34;9.07;;;3.45;;
72437;SDS011;60444;43.534;-5.674;2023-02-14T08:26:00;11.30;;;3.47;;
72437;SDS011;60444;43.534;-5.674;2023-02-14T08:28:26;14.43;;;4.83;;
72437;SDS011;60444;43.534;-5.674;2023-02-14T08:30:52;13.05;;;4.57;;
72437;SDS011;60444;43.534;-5.674;2023-02-14T08:33:18;10.68;;;3.70;;
72437;SDS011;60444;43.534;-5.674;2023-02-14T08:35:43;13.17;;;4.10;;
72437;SDS011;60444;43.534;-5.674;2023-02-14T08:38:09;16.10;;;5.22;;
72437;SDS011;60444;43.534;-5.674;2023-02-14T08:40:35;19.03;;;5.27;;
72437;SDS011;60444;43.534;-5.674;2023-02-14T08:43:01;17.65;;;5.43;;
72437;SDS011;60444;43.534;-5.674;2023-02-14T08:45:30;14.40;;;4.82;;
72437;SDS011;60444;43.534;-5.674;2023-02-14T08:48:05;14.30;;;5.10;;
72437;SDS011;60444;43.534;-5.674;2023-02-14T08:50:33;11.73;;;3.35;;
72437;SDS011;60444;43.534;-5.674;2023-02-14T08:53:00;18.50;;;5.50;;
72437;SDS011;60444;43.534;-5.674;2023-02-14T08:55:29;11.93;;;3.50;;
72437;SDS011;60444;43.534;-5.674;2023-02-14T08:57:55;14.27;;;4.45;;
72437;SDS011;60444;43.534;-5.674;2023-02-14T09:00:21;14.37;;;3.47;;
72437;SDS011;60444;43.534;-5.674;2023-02-14T09:02:50;10.85;;;3.35;;
72437;SDS011;60444;43.534;-5.674;2023-02-14T09:05:17;14.90;;;4.68;;
72437;SDS011;60444;43.534;-5.674;2023-02-14T09:07:44;21.83;;;5.43;;
72437;SDS011;60444;43.534;-5.674;2023-02-14T09:10:09;19.75;;;4.78;;
72437;SDS011;60444;43.534;-5.674;2023-02-14T09:12:37;28.73;;;6.90;;
72437;SDS011;60444;43.534;-5.674;2023-02-14T09:15:04;24.23;;;6.93;;
72437;SDS011;60444;43.534;-5.674;2023-02-14T09:17:30;22.20;;;5.83;;
72437;SDS011;60444;43.534;-5.674;2023-02-14T09:19:55;21.30;;;6.00;;
72437;SDS011;60444;43.534;-5.674;2023-02-14T09:22:21;12.57;;;4.50;;
72437;SDS011;60444;43.534;-5.674;2023-02-14T09:24:46;15.43;;;3.87;;
72437;SDS011;60444;43.534;-5.674;2023-02-14T09:27:12;7.50;;;2.77;;
72437;SDS011;60444;43.534;-5.674;2023-02-14T09:29:37;7.37;;;2.30;;
72437;SDS011;60444;43.534;-5.674;2023-02-14T09:32:03;8.00;;;2.47;;
72437;SDS011;60444;43.534;-5.674;2023-02-14T09:34:29;7.82;;;2.67;;
72437;SDS011;60444;43.534;-5.674;2023-02-14T09:36:54;7.32;;;2.40;;
72437;SDS011;60444;43.534;-5.674;2023-02-14T09:39:20;9.57;;;2.47;;
72437;SDS011;60444;43.534;-5.674;2023-02-14T09:47:23;8.65;;;2.38;;
72437;SDS011;60444;43.534;-5.674;2023-02-14T09:50:05;11.10;;;2.80;;
72437;SDS011;60444;43.534;-5.674;2023-02-14T09:52:37;12.85;;;4.25;;
72437;SDS011;60444;43.534;-5.674;2023-02-14T09:55:03;12.90;;;2.73;;
72437;SDS011;60444;43.534;-5.674;2023-02-14T09:57:48;9.65;;;2.80;;
72437;SDS011;60444;43.534;-5.674;2023-02-14T10:00:24;10.23;;;2.70;;
72437;SDS011;60444;43.534;-5.674;2023-02-14T10:03:30;7.53;;;2.10;;
72437;SDS011;60444;43.534;-5.674;2023-02-14T10:12:04;11.80;;;2.65;;
72437;SDS011;60444;43.534;-5.674;2023-02-14T10:14:38;10.93;;;2.40;;
72437;SDS011;60444;43.534;-5.674;2023-02-14T10:17:15;10.57;;;2.30;;
72437;SDS011;60444;43.534;-5.674;2023-02-14T10:20:04;8.10;;;2.08;;
72437;SDS011;60444;43.534;-5.674;2023-02-14T10:23:01;11.95;;;2.47;;
72437;SDS011;60444;43.534;-5.674;2023-02-14T10:25:40;7.28;;;1.95;;
72437;SDS011;60444;43.534;-5.674;2023-02-14T10:28:12;6.63;;;1.60;;
72437;SDS011;60444;43.534;-5.674;2023-02-14T10:30:39;6.97;;;1.80;;
72437;SDS011;60444;43.534;-5.674;2023-02-14T10:33:16;8.70;;;2.33;;
72437;SDS011;60444;43.534;-5.674;2023-02-14T10:35:50;8.18;;;1.42;;
72437;SDS011;60444;43.534;-5.674;2023-02-14T10:41:16;7.15;;;1.52;;
72437;SDS011;60444;43.534;-5.674;2023-02-14T10:46:32;5.75;;;1.30;;
72437;SDS011;60444;43.534;-5.674;2023-02-14T10:55:11;10.00;;;2.28;;
72437;SDS011;60444;43.534;-5.674;2023-02-14T10:57:39;7.40;;;1.90;;
72437;SDS011;60444;43.534;-5.674;2023-02-14T11:02:45;6.93;;;1.95;;
72437;SDS011;60444;43.534;-5.674;2023-02-14T11:05:25;6.57;;;1.27;;
72437;SDS011;60444;43.534;-5.674;2023-02-14T11:07:54;9.05;;;1.25;;
72437;SDS011;60444;43.534;-5.674;2023-02-14T11:10:24;6.33;;;1.50;;
72437;SDS011;60444;43.534;-5.674;2023-02-14T11:12:51;6.55;;;1.55;;
72437;SDS011;60444;43.534;-5.674;2023-02-14T11:17:43;5.87;;;1.70;;
72437;SDS011;60444;43.534;-5.674;2023-02-14T11:22:47;4.85;;;1.48;;
72437;SDS011;60444;43.534;-5.674;2023-02-14T11:25:30;6.75;;;1.40;;
72437;SDS011;60444;43.534;-5.674;2023-02-14T11:28:03;7.22;;;1.80;;
72437;SDS011;60444;43.534;-5.674;2023-02-14T11:30:34;7.93;;;2.57;;
72437;SDS011;60444;43.534;-5.674;2023-02-14T11:33:03;8.63;;;1.50;;
72437;SDS011;60444;43.534;-5.674;2023-02-14T11:35:29;7.57;;;1.65;;
72437;SDS011;60444;43.534;-5.674;2023-02-14T11:38:03;6.95;;;2.38;;
72437;SDS011;60444;43.534;-5.674;2023-02-14T11:40:46;6.97;;;2.05;;
72437;SDS011;60444;43.534;-5.674;2023-02-14T11:43:32;9.10;;;1.90;;
72437;SDS011;60444;43.534;-5.674;2023-02-14T11:48:57;7.40;;;2.15;;
72437;SDS011;60444;43.534;-5.674;2023-02-14T11:51:26;5.63;;;1.80;;
72437;SDS011;60444;43.534;-5.674;2023-02-14T11:53:55;9.00;;;2.08;;
72437;SDS011;60444;43.534;-5.674;2023-02-14T12:01:50;7.57;;;2.00;;
72437;SDS011;60444;43.534;-5.674;2023-02-14T12:04:18;6.63;;;2.00;;
72437;SDS011;60444;43.534;-5.674;2023-02-14T12:06:49;7.78;;;2.42;;
72437;SDS011;60444;43.534;-5.674;2023-02-14T12:09:26;8.13;;;2.63;;
72437;SDS011;60444;43.534;-5.674;2023-02-14T12:14:21;5.20;;;1.70;;
72437;SDS011;60444;43.534;-5.674;2023-02-14T12:19:31;6.60;;;2.15;;
72437;SDS011;60444;43.534;-5.674;2023-02-14T12:22:07;5.65;;;1.55;;
72437;SDS011;60444;43.534;-5.674;2023-02-14T12:24:41;8.52;;;3.22;;
72437;SDS011;60444;43.534;-5.674;2023-02-14T12:30:37;10.93;;;3.57;;
72437;SDS011;60444;43.534;-5.674;2023-02-14T12:33:09;13.10;;;3.45;;
72437;SDS011;60444;43.534;-5.674;2023-02-14T12:35:56;9.32;;;2.65;;
72437;SDS011;60444;43.534;-5.674;2023-02-14T12:38:29;9.48;;;3.40;;
72437;SDS011;60444;43.534;-5.674;2023-02-14T12:43:55;8.13;;;2.30;;
72437;SDS011;60444;43.534;-5.674;2023-02-14T13:00:18;9.57;;;2.42;;
72437;SDS011;60444;43.534;-5.674;2023-02-14T13:03:14;7.90;;;2.10;;
72437;SDS011;60444;43.534;-5.674;2023-02-14T13:06:08;8.93;;;2.90;;
72437;SDS011;60444;43.534;-5.674;2023-02-14T13:20:23;8.98;;;2.17;;
72437;SDS011;60444;43.534;-5.674;2023-02-14T13:23:02;9.43;;;2.20;;
72437;SDS011;60444;43.534;-5.674;2023-02-14T13:25:31;6.45;;;1.90;;
72437;SDS011;60444;43.534;-5.674;2023-02-14T13:28:04;7.88;;;2.25;;
72437;SDS011;60444;43.534;-5.674;2023-02-14T13:30:35;8.32;;;1.70;;
72437;SDS011;60444;43.534;-5.674;2023-02-14T13:33:13;6.18;;;2.10;;
72437;SDS011;60444;43.534;-5.674;2023-02-14T13:35:51;7.17;;;1.80;;
72437;SDS011;60444;43.534;-5.674;2023-02-14T13:38:20;7.68;;;1.80;;
72437;SDS011;60444;43.534;-5.674;2023-02-14T13:40:48;7.50;;;2.42;;
72437;SDS011;60444;43.534;-5.674;2023-02-14T13:44:00;6.22;;;2.05;;
72437;SDS011;60444;43.534;-5.674;2023-02-14T13:54:21;9.55;;;1.80;;
72437;SDS011;60444;43.534;-5.674;2023-02-14T13:56:54;9.90;;;2.15;;
72437;SDS011;60444;43.534;-5.674;2023-02-14T13:59:25;7.82;;;1.95;;
72437;SDS011;60444;43.534;-5.674;2023-02-14T14:04:50;7.10;;;1.95;;
72437;SDS011;60444;43.534;-5.674;2023-02-14T14:07:17;9.00;;;2.55;;
72437;SDS011;60444;43.534;-5.674;2023-02-14T14:15:13;7.77;;;1.97;;
72437;SDS011;60444;43.534;-5.674;2023-02-14T14:18:29;9.52;;;2.20;;
72437;SDS011;60444;43.534;-5.674;2023-02-14T14:20:38;7.53;;;1.88;;
72437;SDS011;60444;43.534;-5.674;2023-02-14T14:23:25;8.73;;;1.70;;
72437;SDS011;60444;43.534;-5.674;2023-02-14T14:26:01;8.07;;;1.73;;
72437;SDS011;60444;43.534;-5.674;2023-02-14T14:28:28;7.67;;;1.93;;
72437;SDS011;60444;43.534;-5.674;2023-02-14T14:30:56;4.82;;;1.60;;
72437;SDS011;60444;43.534;-5.674;2023-02-14T14:33:30;7.85;;;2.15;;
72437;SDS011;60444;43.534;-5.674;2023-02-14T14:35:58;6.70;;;2.15;;
72437;SDS011;60444;43.534;-5.674;2023-02-14T14:38:32;10.20;;;2.78;;
72437;SDS011;60444;43.534;-5.674;2023-02-14T14:40:59;11.43;;;3.47;;
72437;SDS011;60444;43.534;-5.674;2023-02-14T14:43:35;7.22;;;2.42;;
72437;SDS011;60444;43.534;-5.674;2023-02-14T14:46:03;11.85;;;3.97;;
72437;SDS011;60444;43.534;-5.674;2023-02-14T14:48:37;8.10;;;1.77;;
72437;SDS011;60444;43.534;-5.674;2023-02-14T14:51:25;7.88;;;2.30;;
72437;SDS011;60444;43.534;-5.674;2023-02-14T14:54:02;7.80;;;1.70;;
72437;SDS011;60444;43.534;-5.674;2023-02-14T14:58:57;7.63;;;2.13;;
72437;SDS011;60444;43.534;-5.674;2023-02-14T15:01:41;8.90;;;1.90;;
72437;SDS011;60444;43.534;-5.674;2023-02-14T15:06:43;6.17;;;1.40;;
72437;SDS011;60444;43.534;-5.674;2023-02-14T15:09:11;7.45;;;1.90;;
72437;SDS011;60444;43.534;-5.674;2023-02-14T15:11:38;7.53;;;2.30;;
72437;SDS011;60444;43.534;-5.674;2023-02-14T15:14:24;8.75;;;1.63;;
72437;SDS011;60444;43.534;-5.674;2023-02-14T15:16:53;8.30;;;1.85;;
72437;SDS011;60444;43.534;-5.674;2023-02-14T15:19:26;8.23;;;2.07;;
72437;SDS011;60444;43.534;-5.674;2023-02-14T15:22:02;9.73;;;2.00;;
72437;SDS011;60444;43.534;-5.674;2023-02-14T15:24:29;6.68;;;1.98;;
72437;SDS011;60444;43.534;-5.674;2023-02-14T15:26:59;7.18;;;1.80;;
72437;SDS011;60444;43.534;-5.674;2023-02-14T15:29:27;7.03;;;1.60;;
72437;SDS011;60444;43.534;-5.674;2023-02-14T15:31:58;7.43;;;1.23;;
72437;SDS011;60444;43.534;-5.674;2023-02-14T15:34:30;6.57;;;1.60;;
72437;SDS011;60444;43.534;-5.674;2023-02-14T15:37:00;7.63;;;2.13;;
72437;SDS011;60444;43.534;-5.674;2023-02-14T15:39:36;6.15;;;1.42;;
72437;SDS011;60444;43.534;-5.674;2023-02-14T15:42:16;7.13;;;1.65;;
72437;SDS011;60444;43.534;-5.674;2023-02-14T15:47:45;6.40;;;1.63;;
72437;SDS011;60444;43.534;-5.674;2023-02-14T15:50:14;8.15;;;2.13;;
72437;SDS011;60444;43.534;-5.674;2023-02-14T15:52:42;7.95;;;1.35;;
72437;SDS011;60444;43.534;-5.674;2023-02-14T15:55:08;8.23;;;1.88;;
72437;SDS011;60444;43.534;-5.674;2023-02-14T15:57:36;6.77;;;1.20;;
72437;SDS011;60444;43.534;-5.674;2023-02-14T16:00:04;7.90;;;2.00;;
72437;SDS011;60444;43.534;-5.674;2023-02-14T16:02:40;7.32;;;1.77;;
72437;SDS011;60444;43.534;-5.674;2023-02-14T16:05:14;7.72;;;2.00;;
72437;SDS011;60444;43.534;-5.674;2023-02-14T16:07:54;6.10;;;1.63;;
72437;SDS011;60444;43.534;-5.674;2023-02-14T16:15:33;7.68;;;2.00;;
72437;SDS011;60444;43.534;-5.674;2023-02-14T16:18:01;6.68;;;1.40;;
72437;SDS011;60444;43.534;-5.674;2023-02-14T16:25:58;7.35;;;1.30;;
72437;SDS011;60444;43.534;-5.674;2023-02-14T16:28:28;9.00;;;1.77;;
72437;SDS011;60444;43.534;-5.674;2023-02-14T16:30:54;8.85;;;1.55;;
72437;SDS011;60444;43.534;-5.674;2023-02-14T16:33:25;7.50;;;1.80;;
72437;SDS011;60444;43.534;-5.674;2023-02-14T16:36:03;5.93;;;1.52;;
72437;SDS011;60444;43.534;-5.674;2023-02-14T16:38:43;6.82;;;1.63;;
72437;SDS011;60444;43.534;-5.674;2023-02-14T16:41:14;8.18;;;1.70;;
72437;SDS011;60444;43.534;-5.674;2023-02-14T16:43:41;8.93;;;2.22;;
72437;SDS011;60444;43.534;-5.674;2023-02-14T16:46:13;7.53;;;1.90;;
72437;SDS011;60444;43.534;-5.674;2023-02-14T16:48:43;8.50;;;1.92;;
72437;SDS011;60444;43.534;-5.674;2023-02-14T16:51:16;9.18;;;2.10;;
72437;SDS011;60444;43.534;-5.674;2023-02-14T16:53:43;6.63;;;1.63;;
72437;SDS011;60444;43.534;-5.674;2023-02-14T16:56:14;6.95;;;2.25;;
72437;SDS011;60444;43.534;-5.674;2023-02-14T16:58:44;7.13;;;2.50;;
72437;SDS011;60444;43.534;-5.674;2023-02-14T17:01:10;9.68;;;2.22;;
72437;SDS011;60444;43.534;-5.674;2023-02-14T17:03:35;8.87;;;2.73;;
72437;SDS011;60444;43.534;-5.674;2023-02-14T17:06:03;10.07;;;2.55;;
72437;SDS011;60444;43.534;-5.674;2023-02-14T17:08:30;8.60;;;2.10;;
72437;SDS011;60444;43.534;-5.674;2023-02-14T17:10:56;7.87;;;2.20;;
72437;SDS011;60444;43.534;-5.674;2023-02-14T17:13:22;9.98;;;2.25;;
72437;SDS011;60444;43.534;-5.674;2023-02-14T17:15:50;6.93;;;2.00;;
72437;SDS011;60444;43.534;-5.674;2023-02-14T17:18:16;7.65;;;1.95;;
72437;SDS011;60444;43.534;-5.674;2023-02-14T17:20:46;9.15;;;2.70;;
72437;SDS011;60444;43.534;-5.674;2023-02-14T17:23:12;11.20;;;2.17;;
72437;SDS011;60444;43.534;-5.674;2023-02-14T17:25:38;9.32;;;2.25;;
72437;SDS011;60444;43.534;-5.674;2023-02-14T17:28:03;6.37;;;2.07;;
72437;SDS011;60444;43.534;-5.674;2023-02-14T17:30:29;7.23;;;1.93;;